createdAt,value
2017-05-14T00:28:46.579Z,55.76
2017-05-14T00:29:48.186Z,55.18
2017-05-14T00:30:49.991Z,55.85
2017-05-14T00:31:51.617Z,55.56
2017-05-14T00:32:53.225Z,55.85
2017-05-14T00:33:54.942Z,55.66
2017-05-14T00:34:56.603Z,55.66
2017-05-14T00:35:58.274Z,56.23
2017-05-14T00:37:00.840Z,56.33
2017-05-14T00:38:02.534Z,56.33
2017-05-14T00:39:04.247Z,56.04
2017-05-14T00:40:05.874Z,56.21
2017-05-14T00:41:07.595Z,56.59
2017-05-14T00:42:09.462Z,56.33
2017-05-14T00:43:11.025Z,56.40
2017-05-14T00:44:12.671Z,56.33
2017-05-14T00:45:14.383Z,56.88
2017-05-14T00:46:16.014Z,56.98
2017-05-14T00:47:17.660Z,56.88
2017-05-14T00:48:19.357Z,56.78
2017-05-14T00:49:21.106Z,56.88
2017-05-14T00:50:22.755Z,56.98
2017-05-14T00:51:24.395Z,56.78
2017-05-14T00:52:26.067Z,56.88
2017-05-14T00:53:27.727Z,56.88
2017-05-14T00:54:29.492Z,56.78
2017-05-14T00:55:31.360Z,57.26
2017-05-14T00:56:33.022Z,57.36
2017-05-14T00:57:34.659Z,56.78
2017-05-14T00:58:36.336Z,57.17
2017-05-14T00:59:38.074Z,57.45
2017-05-14T01:00:39.705Z,57.26
2017-05-14T01:01:41.349Z,57.26
2017-05-14T01:02:43.043Z,57.36
2017-05-14T01:03:44.725Z,57.26
2017-05-14T01:04:46.453Z,57.17
2017-05-14T01:05:48.078Z,57.17
2017-05-14T01:06:49.766Z,57.26
2017-05-14T01:07:51.388Z,57.45
2017-05-14T01:08:53.115Z,57.36
2017-05-14T01:09:54.741Z,57.45
2017-05-14T01:10:56.450Z,57.36
2017-05-14T01:12:37.588Z,57.55
2017-05-14T01:13:39.279Z,58.03
2017-05-14T01:14:40.920Z,57.93
2017-05-14T01:15:42.583Z,57.93
2017-05-14T01:16:44.203Z,58.03
2017-05-14T01:17:45.958Z,57.65
2017-05-14T01:18:47.651Z,57.65
2017-05-14T01:19:49.363Z,57.55
2017-05-14T01:20:51.028Z,57.93
2017-05-14T01:21:52.720Z,58.03
2017-05-14T01:22:54.489Z,58.03
2017-05-14T01:23:56.202Z,57.93
2017-05-14T01:24:58.246Z,57.75
2017-05-14T01:25:59.928Z,57.55
2017-05-14T01:27:01.590Z,57.93
2017-05-14T01:28:03.262Z,57.93
2017-05-14T01:29:04.947Z,57.84
2017-05-14T01:30:06.700Z,57.93
2017-05-14T01:31:08.405Z,57.65
2017-05-14T01:32:10.107Z,57.84
2017-05-14T01:33:11.799Z,57.75
2017-05-14T01:34:13.483Z,58.03
2017-05-14T01:35:15.235Z,57.93
2017-05-14T01:36:16.908Z,57.93
2017-05-14T01:37:18.607Z,58.32
2017-05-14T01:38:20.287Z,57.84
2017-05-14T01:39:21.973Z,57.55
2017-05-14T01:40:23.706Z,57.65
2017-05-14T01:42:04.974Z,58.13
2017-05-14T01:43:06.658Z,58.03
2017-05-14T01:44:08.330Z,57.75
2017-05-14T01:45:10.011Z,57.75
2017-05-14T01:46:11.663Z,57.65
2017-05-14T01:47:13.363Z,58.22
2017-05-14T01:48:14.995Z,58.29
2017-05-14T01:49:16.643Z,57.62
2017-05-14T01:50:18.283Z,58.20
2017-05-14T01:51:19.924Z,58.48
2017-05-14T01:52:21.654Z,58.39
2017-05-14T01:53:23.290Z,58.29
2017-05-14T01:54:24.941Z,58.48
2017-05-14T01:55:26.618Z,58.29
2017-05-14T01:56:28.233Z,58.48
2017-05-14T01:57:29.961Z,59.25
2017-05-14T01:58:31.559Z,58.58
2017-05-14T01:59:33.197Z,59.06
2017-05-14T02:00:34.844Z,58.96
2017-05-14T02:01:36.484Z,58.77
2017-05-14T02:02:38.238Z,58.96
2017-05-14T02:03:39.858Z,58.77
2017-05-14T02:04:41.504Z,59.25
2017-05-14T02:05:43.166Z,59.16
2017-05-14T02:06:44.812Z,59.16
2017-05-14T02:07:46.499Z,59.44
2017-05-14T02:08:48.169Z,59.25
2017-05-14T02:09:49.882Z,59.73
2017-05-14T02:10:51.535Z,60.21
2017-05-14T02:11:53.143Z,60.02
2017-05-14T02:12:54.904Z,59.92
2017-05-14T02:13:56.575Z,59.83
2017-05-14T02:14:58.215Z,59.92
2017-05-14T02:15:59.899Z,60.31
2017-05-14T02:17:01.639Z,60.11
2017-05-14T02:18:03.332Z,59.92
2017-05-14T02:19:05.794Z,60.88
2017-05-14T02:20:07.464Z,60.60
2017-05-14T02:21:09.101Z,60.28
2017-05-14T02:22:10.835Z,60.21
2017-05-14T02:23:12.593Z,60.08
2017-05-14T02:24:14.239Z,60.31
2017-05-14T02:25:15.942Z,60.66
2017-05-14T02:26:17.601Z,60.57
2017-05-14T02:27:19.297Z,60.40
2017-05-14T02:28:21.029Z,60.95
2017-05-14T02:29:22.726Z,60.57
2017-05-14T02:30:24.426Z,60.66
2017-05-14T02:31:26.092Z,60.66
2017-05-14T02:32:27.749Z,60.57
2017-05-14T02:33:29.479Z,60.85
2017-05-14T02:34:31.120Z,61.05
2017-05-14T02:35:32.773Z,60.75
2017-05-14T02:36:34.427Z,60.85
2017-05-14T02:37:36.117Z,61.24
2017-05-14T02:38:37.885Z,61.33
2017-05-14T02:39:39.590Z,61.43
2017-05-14T02:40:41.262Z,61.24
2017-05-14T02:41:42.893Z,61.52
2017-05-14T02:42:44.601Z,61.14
2017-05-14T02:43:46.397Z,60.95
2017-05-14T02:44:48.060Z,61.14
2017-05-14T02:45:49.757Z,61.24
2017-05-14T02:46:51.432Z,61.33
2017-05-14T02:47:53.062Z,61.14
2017-05-14T02:48:54.822Z,61.33
2017-05-14T02:49:56.551Z,61.91
2017-05-14T02:50:58.237Z,62.01
2017-05-14T02:51:59.953Z,61.33
2017-05-14T02:53:01.639Z,61.91
2017-05-14T02:54:42.919Z,61.24
2017-05-14T02:55:44.637Z,61.81
2017-05-14T02:56:46.457Z,61.91
2017-05-14T02:58:27.642Z,61.62
2017-05-14T02:59:29.343Z,61.52
2017-05-14T03:00:31.019Z,61.91
2017-05-14T03:01:32.775Z,61.91
2017-05-14T03:02:34.468Z,61.98
2017-05-14T03:03:36.336Z,61.81
2017-05-14T03:04:38.121Z,61.62
2017-05-14T03:05:39.816Z,61.72
2017-05-14T03:06:41.522Z,62.48
2017-05-14T03:07:43.202Z,61.88
2017-05-14T03:08:44.963Z,61.72
2017-05-14T03:09:46.664Z,61.81
2017-05-14T03:10:48.369Z,62.19
2017-05-14T03:11:50.066Z,61.91
2017-05-14T03:12:51.738Z,61.91
2017-05-14T03:13:53.435Z,61.69
2017-05-14T03:14:55.124Z,62.16
2017-05-14T03:15:56.726Z,62.55
2017-05-14T03:16:58.395Z,62.48
2017-05-14T03:18:00.076Z,62.39
2017-05-14T03:19:01.897Z,62.39
2017-05-14T03:20:03.580Z,61.98
2017-05-14T03:21:05.233Z,62.16
2017-05-14T03:22:06.846Z,62.01
2017-05-14T03:23:08.575Z,61.88
2017-05-14T03:24:10.392Z,61.91
2017-05-14T03:25:12.036Z,61.91
2017-05-14T03:26:13.710Z,61.98
2017-05-14T03:27:15.412Z,61.91
2017-05-14T03:28:17.038Z,62.01
2017-05-14T03:29:19.289Z,61.88
2017-05-14T03:30:20.956Z,61.78
2017-05-14T03:31:22.588Z,61.88
2017-05-14T03:32:24.271Z,62.01
2017-05-14T03:33:25.899Z,62.10
2017-05-14T03:34:27.605Z,62.01
2017-05-14T03:35:29.265Z,61.88
2017-05-14T03:36:31.018Z,62.16
2017-05-14T03:37:32.679Z,62.45
2017-05-14T03:38:34.369Z,62.26
2017-05-14T03:39:36.105Z,62.74
2017-05-14T03:40:37.786Z,62.01
2017-05-14T03:41:39.500Z,62.07
2017-05-14T03:42:41.151Z,62.45
2017-05-14T03:43:42.777Z,62.45
2017-05-14T03:44:44.534Z,63.12
2017-05-14T03:45:46.139Z,62.65
2017-05-14T03:46:47.794Z,62.93
2017-05-14T03:47:49.446Z,62.93
2017-05-14T03:48:51.102Z,62.93
2017-05-14T03:50:32.245Z,62.84
2017-05-14T03:52:13.425Z,62.65
2017-05-14T03:53:15.046Z,62.16
2017-05-14T03:54:16.659Z,62.74
2017-05-14T03:55:18.289Z,62.84
2017-05-14T03:56:19.897Z,62.93
2017-05-14T03:57:21.712Z,62.65
2017-05-14T03:58:23.314Z,62.93
2017-05-14T03:59:24.928Z,62.65
2017-05-14T04:00:26.581Z,62.55
2017-05-14T04:01:28.200Z,62.16
2017-05-14T04:02:29.872Z,62.93
2017-05-14T04:03:31.519Z,62.65
2017-05-14T04:04:33.124Z,63.12
2017-05-14T04:05:34.749Z,63.32
2017-05-14T04:06:36.373Z,62.74
2017-05-14T04:07:38.113Z,63.22
2017-05-14T04:08:39.729Z,62.55
2017-05-14T04:09:41.374Z,63.12
2017-05-14T04:10:43.033Z,62.74
2017-05-14T04:11:44.687Z,63.12
2017-05-14T04:12:46.432Z,63.22
2017-05-14T04:13:48.094Z,63.03
2017-05-14T04:14:49.741Z,62.65
2017-05-14T04:15:51.373Z,63.22
2017-05-14T04:16:53.013Z,62.74
2017-05-14T04:17:54.823Z,63.22
2017-05-14T04:18:56.465Z,62.55
2017-05-14T04:19:58.262Z,62.65
2017-05-14T04:20:59.940Z,62.87
2017-05-14T04:22:01.598Z,62.84
2017-05-14T04:23:03.298Z,62.36
2017-05-14T04:24:04.978Z,62.45
2017-05-14T04:25:06.687Z,63.22
2017-05-14T04:26:08.325Z,62.65
2017-05-14T04:27:10.048Z,62.55
2017-05-14T04:28:11.771Z,62.55
2017-05-14T04:29:13.447Z,63.51
2017-05-14T04:30:15.201Z,62.93
2017-05-14T04:31:16.875Z,63.22
2017-05-14T04:32:18.535Z,62.93
2017-05-14T04:33:20.255Z,63.25
2017-05-14T04:34:21.928Z,63.06
2017-05-14T04:35:23.607Z,62.84
2017-05-14T04:36:25.240Z,62.93
2017-05-14T04:37:26.950Z,62.74
2017-05-14T04:38:28.684Z,62.65
2017-05-14T04:39:30.393Z,62.84
2017-05-14T04:40:32.089Z,63.42
2017-05-14T04:41:33.774Z,63.25
2017-05-14T04:42:35.552Z,63.12
2017-05-14T04:43:37.278Z,62.87
2017-05-14T04:44:39.014Z,62.29
2017-05-14T04:45:40.729Z,62.19
2017-05-14T04:46:42.417Z,62.01
2017-05-14T04:47:44.181Z,62.04
2017-05-14T04:48:46.143Z,61.84
2017-05-14T04:49:47.882Z,61.55
2017-05-14T04:50:49.577Z,61.27
2017-05-14T04:51:51.261Z,60.78
2017-05-14T04:52:52.965Z,59.95
2017-05-14T04:53:54.747Z,59.86
2017-05-14T04:54:56.433Z,59.76
2017-05-14T04:55:58.109Z,59.57
2017-05-14T04:56:59.747Z,59.38
2017-05-14T04:58:01.437Z,58.99
2017-05-14T04:59:03.148Z,59.02
2017-05-14T05:00:04.802Z,58.54
2017-05-14T05:01:06.442Z,57.87
2017-05-14T05:02:08.083Z,57.68
2017-05-14T05:03:09.782Z,57.87
2017-05-14T05:04:11.488Z,57.87
2017-05-14T05:05:13.121Z,57.32
2017-05-14T05:06:14.777Z,56.93
2017-05-14T05:07:16.475Z,56.84
2017-05-14T05:08:18.094Z,56.84
2017-05-14T05:09:19.811Z,56.36
2017-05-14T05:10:21.442Z,56.26
2017-05-14T05:11:23.138Z,55.52
2017-05-14T05:12:24.792Z,55.90
2017-05-14T05:13:26.432Z,55.43
2017-05-14T05:14:28.155Z,54.75
2017-05-14T05:15:29.801Z,55.23
2017-05-14T05:16:31.501Z,54.94
2017-05-14T05:17:33.138Z,54.85
2017-05-14T05:18:34.825Z,54.97
2017-05-14T05:19:36.572Z,54.97
2017-05-14T05:21:17.841Z,54.39
2017-05-14T05:22:19.475Z,53.62
2017-05-14T05:23:21.122Z,53.72
2017-05-14T05:24:22.844Z,53.74
2017-05-14T05:25:24.467Z,53.55
2017-05-14T05:26:26.194Z,53.36
2017-05-14T05:27:27.859Z,53.45
2017-05-14T05:28:29.503Z,53.27
2017-05-14T05:29:31.165Z,52.78
2017-05-14T05:30:32.806Z,52.69
2017-05-14T05:31:34.536Z,52.69
2017-05-14T05:32:36.197Z,52.42
2017-05-14T05:33:37.905Z,52.30
2017-05-14T05:34:39.598Z,51.75
2017-05-14T05:35:41.286Z,51.75
2017-05-14T05:37:22.520Z,52.33
2017-05-14T05:38:24.178Z,51.94
2017-05-14T05:39:25.830Z,51.36
2017-05-14T05:40:27.495Z,51.56
2017-05-14T05:41:29.213Z,51.20
2017-05-14T05:42:30.957Z,51.48
2017-05-14T05:43:32.652Z,51.39
2017-05-14T05:44:34.300Z,51.94
2017-05-14T05:45:35.940Z,51.68
2017-05-14T05:46:37.605Z,51.20
2017-05-14T05:47:39.325Z,51.29
2017-05-14T05:48:40.938Z,51.20
2017-05-14T05:49:42.570Z,50.71
2017-05-14T05:50:44.221Z,50.81
2017-05-14T05:51:45.899Z,49.84
2017-05-14T05:52:47.580Z,50.26
2017-05-14T05:53:49.221Z,49.68
2017-05-14T05:54:50.899Z,49.58
2017-05-14T05:55:52.545Z,49.87
2017-05-14T05:56:54.170Z,49.87
2017-05-14T05:57:55.917Z,49.68
2017-05-14T05:58:57.657Z,49.58
2017-05-14T05:59:59.400Z,49.68
2017-05-14T06:01:01.084Z,49.22
2017-05-14T06:02:02.740Z,48.83
2017-05-14T06:03:04.487Z,49.19
2017-05-14T06:04:06.181Z,48.52
2017-05-14T06:05:07.867Z,48.71
2017-05-14T06:06:09.555Z,48.44
2017-05-14T06:07:11.227Z,48.16
2017-05-14T06:08:13.160Z,48.44
2017-05-14T06:09:14.862Z,47.77
2017-05-14T06:10:16.580Z,47.58
2017-05-14T06:11:18.326Z,47.58
2017-05-14T06:12:20.000Z,47.29
2017-05-14T06:13:21.831Z,47.38
2017-05-14T06:14:23.560Z,47.19
2017-05-14T06:15:25.234Z,47.48
2017-05-14T06:16:26.905Z,47.29
2017-05-14T06:17:28.583Z,47.12
2017-05-14T06:18:30.342Z,46.73
2017-05-14T06:19:32.071Z,46.73
2017-05-14T06:20:33.747Z,47.12
2017-05-14T06:21:35.411Z,46.54
2017-05-14T06:22:37.159Z,46.64
2017-05-14T06:23:38.852Z,46.64
2017-05-14T06:24:40.519Z,46.73
2017-05-14T06:25:42.206Z,46.64
2017-05-14T06:26:43.905Z,46.64
2017-05-14T06:27:45.559Z,46.44
2017-05-14T06:28:47.316Z,46.25
2017-05-14T06:30:28.522Z,45.79
2017-05-14T06:31:30.166Z,45.79
2017-05-14T06:32:31.866Z,45.89
2017-05-14T06:33:33.507Z,45.40
2017-05-14T06:35:14.736Z,45.50
2017-05-14T06:36:56.979Z,45.40
2017-05-14T06:37:58.633Z,45.21
2017-05-14T06:39:00.321Z,45.31
2017-05-14T06:40:01.966Z,45.21
2017-05-14T06:41:03.650Z,45.31
2017-05-14T06:42:05.400Z,45.40
2017-05-14T06:43:07.110Z,44.92
2017-05-14T06:44:08.778Z,44.92
2017-05-14T06:45:10.445Z,43.98
2017-05-14T06:46:12.127Z,43.88
2017-05-14T06:47:13.940Z,43.49
2017-05-14T06:48:15.599Z,43.98
2017-05-14T06:49:17.329Z,43.61
2017-05-14T06:50:18.995Z,43.71
2017-05-14T06:51:20.679Z,43.30
2017-05-14T06:52:22.474Z,43.51
2017-05-14T06:53:24.139Z,43.68
2017-05-14T06:54:25.825Z,43.68
2017-05-14T06:55:27.501Z,43.88
2017-05-14T06:56:29.156Z,44.26
2017-05-14T06:57:30.920Z,43.88
2017-05-14T06:58:32.615Z,43.98
2017-05-14T06:59:34.315Z,43.59
2017-05-14T07:00:36.015Z,43.20
2017-05-14T07:01:37.774Z,44.17
2017-05-14T07:02:39.495Z,43.59
2017-05-14T07:03:41.168Z,43.49
2017-05-14T07:04:42.849Z,43.32
2017-05-14T07:05:44.540Z,42.35
2017-05-14T07:06:46.148Z,42.45
2017-05-14T07:07:47.858Z,41.99
2017-05-14T07:08:49.533Z,42.16
2017-05-14T07:09:51.193Z,42.45
2017-05-14T07:10:52.814Z,42.07
2017-05-14T07:11:54.555Z,41.87
2017-05-14T07:12:56.301Z,41.99
2017-05-14T07:13:57.971Z,41.29
2017-05-14T07:14:59.712Z,41.02
2017-05-14T07:16:02.473Z,40.83
2017-05-14T07:17:04.110Z,40.63
2017-05-14T07:18:05.809Z,41.02
2017-05-14T07:19:07.478Z,40.73
2017-05-14T07:20:09.119Z,40.83
2017-05-14T07:21:10.768Z,40.42
2017-05-14T07:22:52.927Z,40.71
2017-05-14T07:23:54.625Z,40.81
2017-05-14T07:24:56.281Z,40.71
2017-05-14T07:25:57.972Z,40.90
2017-05-14T07:26:59.603Z,40.71
2017-05-14T07:28:01.330Z,40.90
2017-05-14T07:29:03.142Z,41.00
2017-05-14T07:30:04.832Z,40.23
2017-05-14T07:31:06.522Z,39.64
2017-05-14T07:32:08.171Z,39.76
2017-05-14T07:33:09.867Z,39.84
2017-05-14T07:34:11.530Z,40.05
2017-05-14T07:35:13.193Z,39.76
2017-05-14T07:36:14.855Z,39.57
2017-05-14T07:37:16.508Z,39.76
2017-05-14T07:38:18.279Z,39.28
2017-05-14T07:39:19.971Z,39.86
2017-05-14T07:40:21.673Z,39.55
2017-05-14T07:41:23.353Z,39.86
2017-05-14T07:42:25.134Z,39.67
2017-05-14T07:43:26.870Z,40.23
2017-05-14T07:44:28.547Z,39.45
2017-05-14T07:45:30.237Z,39.94
2017-05-14T07:46:31.922Z,39.37
2017-05-14T07:47:33.586Z,40.32
2017-05-14T07:48:35.611Z,40.34
2017-05-14T07:49:37.325Z,39.37
2017-05-14T07:50:38.981Z,39.28
2017-05-14T07:51:40.682Z,39.18
2017-05-14T07:52:42.349Z,39.37
2017-05-14T07:53:44.110Z,38.91
2017-05-14T07:54:45.774Z,38.81
2017-05-14T07:55:47.484Z,39.09
2017-05-14T07:56:49.152Z,38.12
2017-05-14T07:57:50.869Z,39.18
2017-05-14T07:58:52.624Z,38.79
2017-05-14T07:59:54.248Z,38.71
2017-05-14T08:00:55.909Z,38.81
2017-05-14T08:01:57.536Z,37.75
2017-05-14T08:02:59.236Z,37.94
2017-05-14T08:04:00.992Z,38.43
2017-05-14T08:05:02.673Z,37.94
2017-05-14T08:06:04.372Z,38.25
2017-05-14T08:07:06.030Z,37.57
2017-05-14T08:08:07.738Z,37.19
2017-05-14T08:09:09.599Z,38.43
2017-05-14T08:10:12.384Z,38.35
2017-05-14T08:11:14.111Z,38.06
2017-05-14T08:12:15.795Z,38.45
2017-05-14T08:13:17.489Z,38.04
2017-05-14T08:14:19.241Z,38.06
2017-05-14T08:16:00.610Z,35.93
2017-05-14T08:17:02.353Z,37.67
2017-05-14T08:18:04.276Z,37.38
2017-05-14T08:19:05.989Z,37.98
2017-05-14T08:20:07.960Z,36.33
2017-05-14T08:21:09.910Z,36.14
2017-05-14T08:22:11.769Z,36.74
2017-05-14T08:23:13.628Z,36.62
2017-05-14T08:24:15.371Z,36.04
2017-05-14T08:25:17.102Z,37.21
2017-05-14T08:26:18.811Z,35.93
2017-05-14T08:27:20.638Z,37.19
2017-05-14T08:28:22.313Z,36.72
2017-05-14T08:29:24.052Z,35.64
2017-05-14T08:30:25.846Z,35.64
2017-05-14T08:31:27.696Z,34.28
2017-05-14T08:32:29.469Z,35.66
2017-05-14T08:33:31.132Z,34.01
2017-05-14T08:34:32.911Z,35.46
2017-05-14T08:35:34.558Z,33.81
2017-05-14T08:36:36.294Z,34.59
2017-05-14T08:37:38.005Z,33.83
2017-05-14T08:38:39.663Z,33.83
2017-05-14T08:39:41.355Z,33.15
2017-05-14T08:40:42.982Z,34.04
2017-05-14T08:41:44.712Z,32.49
2017-05-14T08:42:47.684Z,34.43
2017-05-14T08:43:49.573Z,33.36
2017-05-14T08:44:51.248Z,32.20
2017-05-14T08:45:52.935Z,33.65
2017-05-14T08:46:54.688Z,34.33
2017-05-14T08:47:56.376Z,33.38
2017-05-14T08:48:58.033Z,33.18
2017-05-14T08:50:00.342Z,31.44
2017-05-14T08:51:04.514Z,31.23
2017-05-14T08:52:06.231Z,32.39
2017-05-14T08:53:07.864Z,32.96
2017-05-14T08:54:09.560Z,32.26
2017-05-14T08:55:11.194Z,33.44
2017-05-14T08:56:12.856Z,34.22
2017-05-14T08:57:15.008Z,32.68
2017-05-14T08:58:16.990Z,31.74
2017-05-14T09:00:00.839Z,31.27
2017-05-14T09:01:42.805Z,30.24
2017-05-14T09:02:44.376Z,29.47
2017-05-14T09:03:46.004Z,27.73
2017-05-14T09:04:47.886Z,27.45
2017-05-14T09:05:49.589Z,26.10
2017-05-14T09:06:51.304Z,25.15
2017-05-14T09:08:32.460Z,23.12
2017-05-14T09:09:34.074Z,22.25
2017-05-14T09:10:35.736Z,23.24
2017-05-14T09:11:37.361Z,22.87
2017-05-14T09:12:39.038Z,21.70
2017-05-14T09:13:40.861Z,21.81
2017-05-14T09:14:42.557Z,21.72
2017-05-14T09:15:44.309Z,20.85
2017-05-14T09:16:46.000Z,21.15
2017-05-14T09:17:47.750Z,19.80
2017-05-14T09:18:49.476Z,19.42
2017-05-14T09:19:51.203Z,19.04
2017-05-14T09:20:52.865Z,18.64
2017-05-14T09:21:54.569Z,17.47
2017-05-14T09:22:56.377Z,17.29
2017-05-14T09:23:58.218Z,17.29
2017-05-14T09:24:59.885Z,19.18
2017-05-14T09:26:01.584Z,23.50
2017-05-14T09:27:03.273Z,27.00
2017-05-14T09:28:04.957Z,20.26
2017-05-14T09:29:06.750Z,18.93
2017-05-14T09:30:08.400Z,17.58
2017-05-14T09:31:10.100Z,18.26
2017-05-14T09:32:11.822Z,16.81
2017-05-14T09:33:13.487Z,16.13
2017-05-14T09:34:15.177Z,15.55
2017-05-14T09:35:16.816Z,15.36
2017-05-14T09:36:18.463Z,14.97
2017-05-14T09:37:20.226Z,15.33
2017-05-14T09:38:21.879Z,16.50
2017-05-14T09:39:23.513Z,17.19
2017-05-14T09:40:25.169Z,16.11
2017-05-14T09:41:26.800Z,20.04
2017-05-14T09:42:28.523Z,23.02
2017-05-14T09:43:30.227Z,24.12
2017-05-14T09:44:31.912Z,22.46
2017-05-14T09:45:33.651Z,23.21
2017-05-14T09:46:35.310Z,26.55
2017-05-14T09:47:37.047Z,29.25
2017-05-14T09:48:38.726Z,30.11
2017-05-14T09:49:40.409Z,28.92
2017-05-14T09:50:42.069Z,23.80
2017-05-14T09:51:43.773Z,20.09
2017-05-14T09:52:45.489Z,16.89
2017-05-14T09:53:47.208Z,16.03
2017-05-14T09:54:48.864Z,15.93
2017-05-14T09:55:50.495Z,15.54
2017-05-14T09:56:52.152Z,15.54
2017-05-14T09:57:53.891Z,17.36
2017-05-14T09:58:55.493Z,17.66
2017-05-14T10:00:38.197Z,22.23
2017-05-14T10:01:39.903Z,24.91
2017-05-14T10:02:41.578Z,25.47
2017-05-14T10:03:43.337Z,23.13
2017-05-14T10:04:45.021Z,20.23
2017-05-14T10:05:46.739Z,23.01
2017-05-14T10:06:48.387Z,24.83
2017-05-14T10:07:50.113Z,25.31
2017-05-14T10:08:51.741Z,25.31
2017-05-14T10:09:53.460Z,23.01
2017-05-14T10:10:55.221Z,23.01
2017-05-14T10:11:56.888Z,25.10
2017-05-14T10:12:58.562Z,27.98
2017-05-14T10:14:00.270Z,29.14
2017-05-14T10:15:01.947Z,30.29
2017-05-14T10:16:03.664Z,30.58
2017-05-14T10:17:05.263Z,31.05
2017-05-14T10:18:07.017Z,30.45
2017-05-14T10:19:08.655Z,32.20
2017-05-14T10:20:10.366Z,32.20
2017-05-14T10:21:12.281Z,31.04
2017-05-14T10:22:14.041Z,31.41
2017-05-14T10:23:15.698Z,30.82
2017-05-14T10:24:17.319Z,31.78
2017-05-14T10:25:18.944Z,32.36
2017-05-14T10:26:20.746Z,31.49
2017-05-14T10:27:22.433Z,31.01
2017-05-14T10:28:24.155Z,32.07
2017-05-14T10:29:25.791Z,31.78
2017-05-14T10:30:27.461Z,32.36
2017-05-14T10:31:29.226Z,32.36
2017-05-14T10:32:30.840Z,31.86
2017-05-14T10:33:32.450Z,32.06
2017-05-14T10:34:34.067Z,31.87
2017-05-14T10:35:35.766Z,31.49
2017-05-14T10:36:37.446Z,31.21
2017-05-14T10:37:39.068Z,31.89
2017-05-14T10:38:40.726Z,31.68
2017-05-14T10:39:42.351Z,31.79
2017-05-14T10:40:44.046Z,31.21
2017-05-14T10:41:45.776Z,31.31
2017-05-14T10:42:47.409Z,31.02
2017-05-14T10:43:49.050Z,31.13
2017-05-14T10:44:50.763Z,31.23
2017-05-14T10:45:52.415Z,30.74
2017-05-14T10:46:54.116Z,31.71
2017-05-14T10:47:55.876Z,31.52
2017-05-14T10:48:57.584Z,30.94
2017-05-14T10:49:59.287Z,30.94
2017-05-14T10:51:00.946Z,30.92
2017-05-14T10:52:42.109Z,30.82
2017-05-14T10:53:43.757Z,31.87
2017-05-14T10:54:45.409Z,31.87
2017-05-14T10:55:47.096Z,32.36
2017-05-14T10:56:48.752Z,31.68
2017-05-14T10:57:50.471Z,31.78
2017-05-14T10:58:52.120Z,32.24
2017-05-14T10:59:53.804Z,32.34
2017-05-14T11:00:55.516Z,32.54
2017-05-14T11:01:57.198Z,32.44
2017-05-14T11:02:58.918Z,32.82
2017-05-14T11:04:00.565Z,33.60
2017-05-14T11:05:03.147Z,32.64
2017-05-14T11:06:04.782Z,33.02
2017-05-14T11:07:06.515Z,32.64
2017-05-14T11:08:08.236Z,31.96
2017-05-14T11:09:09.918Z,32.15
2017-05-14T11:10:11.520Z,32.44
2017-05-14T11:11:13.215Z,33.22
2017-05-14T11:12:14.953Z,32.33
2017-05-14T11:13:16.611Z,33.49
2017-05-14T11:14:18.249Z,33.22
2017-05-14T11:15:19.951Z,33.02
2017-05-14T11:16:21.608Z,32.73
2017-05-14T11:17:23.352Z,31.76
2017-05-14T11:18:25.026Z,33.59
2017-05-14T11:19:26.677Z,33.41
2017-05-14T11:20:28.366Z,32.64
2017-05-14T11:21:30.180Z,32.75
2017-05-14T11:22:31.910Z,32.36
2017-05-14T11:23:33.587Z,32.36
2017-05-14T11:24:35.259Z,32.46
2017-05-14T11:25:36.984Z,33.31
2017-05-14T11:26:38.718Z,33.60
2017-05-14T11:27:40.453Z,34.28
2017-05-14T11:28:42.106Z,32.64
2017-05-14T11:29:43.769Z,32.54
2017-05-14T11:30:45.451Z,33.51
2017-05-14T11:31:47.103Z,33.60
2017-05-14T11:32:48.861Z,33.41
2017-05-14T11:33:50.598Z,33.22
2017-05-14T11:34:52.295Z,33.02
2017-05-14T11:35:53.980Z,33.02
2017-05-14T11:36:55.621Z,32.92
2017-05-14T11:37:57.304Z,33.99
2017-05-14T11:38:59.002Z,33.41
2017-05-14T11:40:00.690Z,33.60
2017-05-14T11:41:02.361Z,33.31
2017-05-14T11:42:04.032Z,34.28
2017-05-14T11:43:05.766Z,34.57
2017-05-14T11:44:07.576Z,34.67
2017-05-14T11:45:09.262Z,34.09
2017-05-14T11:46:10.967Z,34.28
2017-05-14T11:47:12.625Z,34.57
2017-05-14T11:48:14.382Z,35.35
2017-05-14T11:49:16.093Z,34.57
2017-05-14T11:50:17.764Z,33.89
2017-05-14T11:51:19.462Z,34.57
2017-05-14T11:52:21.093Z,34.19
2017-05-14T11:53:22.829Z,34.47
2017-05-14T11:54:24.499Z,33.12
2017-05-14T11:55:26.204Z,33.22
2017-05-14T11:56:27.893Z,33.89
2017-05-14T11:57:29.645Z,34.45
2017-05-14T11:58:31.378Z,34.55
2017-05-14T11:59:33.002Z,34.75
2017-05-14T12:00:34.642Z,33.59
2017-05-14T12:01:36.305Z,33.29
2017-05-14T12:02:38.045Z,33.18
2017-05-14T12:03:39.744Z,33.67
2017-05-14T12:04:41.468Z,33.95
2017-05-14T12:05:43.134Z,34.54
2017-05-14T12:06:44.838Z,35.02
2017-05-14T12:07:46.567Z,34.54
2017-05-14T12:08:48.250Z,34.44
2017-05-14T12:09:49.934Z,33.57
2017-05-14T12:10:51.546Z,34.25
2017-05-14T12:11:53.314Z,34.54
2017-05-14T12:12:55.024Z,34.63
2017-05-14T12:13:56.712Z,34.92
2017-05-14T12:14:58.360Z,34.62
2017-05-14T12:16:00.062Z,34.52
2017-05-14T12:17:01.712Z,35.10
2017-05-14T12:18:03.356Z,34.62
2017-05-14T12:19:05.091Z,35.10
2017-05-14T12:20:06.743Z,35.50
2017-05-14T12:21:08.506Z,34.44
2017-05-14T12:22:10.260Z,34.54
2017-05-14T12:23:11.940Z,35.39
2017-05-14T12:24:13.736Z,35.58
2017-05-14T12:25:15.462Z,35.49
2017-05-14T12:26:17.186Z,35.68
2017-05-14T12:27:18.841Z,35.58
2017-05-14T12:28:20.497Z,36.53
2017-05-14T12:29:22.302Z,37.21
2017-05-14T12:30:24.107Z,37.79
2017-05-14T12:31:25.753Z,39.04
2017-05-14T12:32:27.428Z,39.43
2017-05-14T12:33:29.134Z,38.85
2017-05-14T12:34:30.906Z,39.04
2017-05-14T12:35:32.642Z,38.56
2017-05-14T12:36:34.305Z,38.83
2017-05-14T12:37:35.993Z,39.14
2017-05-14T12:38:37.671Z,39.62
2017-05-14T12:39:39.422Z,39.72
2017-05-14T12:40:41.257Z,40.19
2017-05-14T12:41:42.965Z,40.78
2017-05-14T12:42:44.594Z,40.69
2017-05-14T12:43:46.285Z,41.27
2017-05-14T12:44:48.020Z,41.83
2017-05-14T12:45:49.699Z,41.85
2017-05-14T12:46:51.355Z,41.27
2017-05-14T12:47:53.052Z,41.08
2017-05-14T12:48:54.751Z,41.00
2017-05-14T12:49:56.506Z,42.25
2017-05-14T12:50:58.167Z,40.52
2017-05-14T12:51:59.838Z,40.23
2017-05-14T12:53:01.571Z,40.52
2017-05-14T12:54:03.261Z,41.97
2017-05-14T12:55:04.979Z,41.19
2017-05-14T12:56:06.601Z,41.56
2017-05-14T12:57:08.304Z,41.48
2017-05-14T12:58:09.985Z,41.56
2017-05-14T12:59:11.626Z,41.85
2017-05-14T13:00:13.349Z,41.75
2017-05-14T13:01:14.979Z,41.09
2017-05-14T13:02:16.675Z,41.19
2017-05-14T13:03:18.368Z,40.78
2017-05-14T13:04:19.965Z,40.23
2017-05-14T13:05:21.739Z,40.81
2017-05-14T13:06:24.221Z,39.36
2017-05-14T13:07:25.914Z,40.30
2017-05-14T13:08:27.583Z,40.11
2017-05-14T13:09:29.283Z,39.45
2017-05-14T13:10:30.991Z,39.84
2017-05-14T13:11:32.761Z,39.55
2017-05-14T13:12:34.400Z,39.94
2017-05-14T13:13:36.017Z,39.24
2017-05-14T13:14:37.688Z,40.01
2017-05-14T13:15:39.416Z,39.24
2017-05-14T13:16:41.095Z,39.04
2017-05-14T13:17:42.796Z,38.95
2017-05-14T13:18:44.484Z,39.14
2017-05-14T13:19:46.210Z,39.62
2017-05-14T13:20:47.935Z,39.43
2017-05-14T13:21:49.616Z,39.62
2017-05-14T13:22:51.255Z,40.01
2017-05-14T13:23:52.924Z,39.34
2017-05-14T13:24:54.590Z,39.82
2017-05-14T13:25:56.261Z,39.72
2017-05-14T13:26:57.935Z,39.72
2017-05-14T13:27:59.564Z,39.53
2017-05-14T13:29:01.195Z,39.62
2017-05-14T13:30:42.374Z,39.62
2017-05-14T13:31:44.008Z,40.47
2017-05-14T13:32:45.666Z,39.90
2017-05-14T13:33:47.372Z,40.78
2017-05-14T13:34:48.997Z,40.30
2017-05-14T13:35:50.775Z,40.40
2017-05-14T13:36:52.431Z,40.57
2017-05-14T13:37:54.041Z,40.47
2017-05-14T13:38:55.720Z,40.86
2017-05-14T13:39:57.423Z,40.20
2017-05-14T13:40:59.177Z,40.01
2017-05-14T13:42:00.796Z,39.72
2017-05-14T13:43:02.464Z,39.82
2017-05-14T13:44:04.108Z,39.64
2017-05-14T13:45:05.760Z,39.24
2017-05-14T13:46:07.439Z,39.55
2017-05-14T13:47:09.091Z,38.87
2017-05-14T13:48:10.752Z,39.16
2017-05-14T13:49:12.428Z,39.16
2017-05-14T13:50:14.076Z,39.06
2017-05-14T13:51:15.826Z,38.58
2017-05-14T13:52:17.510Z,38.78
2017-05-14T13:53:58.740Z,38.68
2017-05-14T13:55:00.331Z,38.68
2017-05-14T13:56:01.972Z,38.87